Latest Weather Observations for Kilmore Gap

IDV60801

Issued at 9:02 pm EDT Sunday 26 February 2017 (issued every 30 minutes, with the page automatically refreshed every 10 minutes)

About weather observations | Map of weather stations | Latest weather observations for VIC | Other Formats
Station Details ID: 088162 Name: KILMORE GAP Lat: -37.38 Lon: 144.97 Height: 527.8 m
Data from the previous 72 hours. | See also: Recent months at Kilmore Gap
Date/Time
EDT
Temp
°C
App
Temp
°C
Dew
Point
°C
Rel
Hum
%
Delta-T
°C
Wind Press
QNH
hPa
Press
MSL
hPa
Rain since
9am
mm
Dir  Spd
km/h
Gust
km/h
Spd
kts
Gust
kts
26/09:00pm 20.6 17.8 12.6 60 4.6 SSE 19 20 10 11 1021.5 - -
26/08:30pm 21.8 19.3 12.4 55 5.4 SSE 17 26 9 14 1021.1 1019.2 0.0
26/08:00pm 24.4 22.6 7.1 33 9.2 N 6 9 3 5 1020.9 1019.0 0.0
26/07:30pm 25.6 23.7 7.7 32 9.8 NW 7 9 4 5 1020.7 1018.8 0.0
26/07:00pm 25.7 23.9 7.3 31 9.9 NNW 6 11 3 6 1020.5 1018.6 0.0
26/06:30pm 26.2 24.2 7.3 30 10.3 NE 7 13 4 7 1020.2 1018.4 0.0
26/06:00pm 26.4 24.1 7.4 30 10.3 NNW 9 13 5 7 1020.2 1018.4 0.0
26/05:30pm 26.7 23.2 7.2 29 10.6 N 15 20 8 11 1020.1 1018.3 0.0
26/05:00pm 26.1 22.6 7.2 30 10.2 N 15 24 8 13 1020.2 1018.4 0.0
26/04:30pm 27.9 26.2 7.7 28 11.1 SSW 6 22 3 12 1020.5 1018.6 0.0
26/04:00pm 27.5 24.9 9.3 32 10.3 N 13 24 7 13 1020.7 1018.8 0.0
26/03:30pm 27.1 23.7 9.0 32 10.2 NNW 17 26 9 14 1020.9 1019.0 0.0
26/03:00pm 26.4 23.4 9.3 34 9.6 NNW 15 22 8 12 1021.2 1019.3 0.0
26/02:30pm 24.9 21.7 10.0 39 8.4 NNE 17 30 9 16 1021.5 1019.7 0.0
26/02:00pm 25.7 23.1 10.7 39 8.6 NNE 15 30 8 16 1021.6 1019.8 0.0
26/01:30pm 25.5 23.1 11.3 41 8.2 NNE 15 24 8 13 1021.9 1020.1 0.0
26/01:00pm 23.6 19.6 10.6 44 7.3 N 22 32 12 17 1022.2 1020.4 0.0
26/12:30pm 24.2 21.2 11.9 46 7.1 NNE 19 32 10 17 1022.3 1020.5 0.0
26/12:00pm 23.2 18.6 10.9 46 7.0 N 26 37 14 20 1022.5 1020.6 0.0
26/11:30am 23.7 20.0 11.4 46 7.1 N 22 32 12 17 1022.6 1020.7 0.0
26/11:00am 21.5 18.3 11.2 52 5.8 NNE 19 28 10 15 1022.7 1020.8 0.0
26/10:30am 19.6 17.3 11.9 61 4.4 NE 15 24 8 13 1022.9 1021.0 0.0
26/10:00am 17.8 16.8 12.3 70 3.1 ESE 9 13 5 7 1022.9 1021.0 0.0
26/09:30am 16.8 16.4 12.5 76 2.4 E 6 11 3 6 1022.7 1020.8 0.0
26/09:00am 14.3 13.9 13.0 92 0.7 S 7 9 4 5 1022.2 1020.4 0.0
26/08:30am 12.8 12.3 12.5 98 0.2 SW 7 11 4 6 1022.0 1020.2 0.0
26/08:16am 12.6 12.2 12.4 99 0.1 WSW 6 11 3 6 1022.1 1020.3 0.0
26/08:04am 12.5 11.1 12.3 99 0.1 SW 11 13 6 7 1022.1 1020.3 0.0
26/08:00am 12.4 11.0 12.2 99 0.1 SW 11 13 6 7 1022.1 1020.3 0.0
26/07:52am 12.2 11.1 12.0 99 0.1 SW 9 13 5 7 1022.0 1020.2 0.0
26/07:30am 12.0 10.1 11.8 99 0.1 SW 13 15 7 8 1021.8 1020.0 0.0
26/07:00am 11.8 9.8 11.6 99 0.1 SW 13 17 7 9 1021.4 1019.6 0.0
26/06:30am 11.6 9.6 11.4 99 0.1 SW 13 17 7 9 1021.1 1019.2 0.0
26/06:14am 11.7 9.7 11.5 99 0.1 SW 13 15 7 8 1020.8 1018.9 0.0
26/06:00am 11.7 9.7 11.5 99 0.1 WSW 13 19 7 10 1020.6 1018.7 0.0
26/05:30am 11.8 9.5 11.6 99 0.1 WSW 15 19 8 10 1020.3 1018.5 0.0
26/05:00am 11.7 9.3 11.5 99 0.1 WSW 15 20 8 11 1020.0 1018.2 0.0
26/04:30am 11.6 9.6 11.4 99 0.1 SW 13 17 7 9 1020.2 1018.4 0.0
26/04:00am 11.6 9.2 11.4 99 0.1 SW 15 19 8 10 1020.7 1018.8 0.0
26/03:30am 11.6 9.2 11.4 99 0.1 SSW 15 20 8 11 1020.9 1019.0 0.0
26/03:00am 11.3 8.1 11.1 99 0.1 SSW 19 22 10 12 1020.8 1018.9 0.0
26/02:30am 11.2 7.9 11.0 99 0.1 SSW 19 28 10 15 1020.8 1018.9 0.0
26/02:04am 11.0 7.5 10.8 99 0.1 SSW 20 26 11 14 1020.8 1018.9 0.0
26/02:00am 11.1 7.6 10.9 99 0.1 SSW 20 26 11 14 1020.8 1018.9 0.0
26/01:53am 11.2 7.9 11.0 99 0.1 SSW 19 24 10 13 1020.9 1019.0 0.0
26/01:30am 11.4 8.0 11.2 99 0.1 SSW 20 26 11 14 1021.0 1019.1 0.0
26/01:00am 11.6 8.2 11.4 99 0.1 SSW 20 24 11 13 1021.2 1019.3 0.0
26/12:54am 11.7 8.5 11.4 98 0.2 SSW 19 24 10 13 1021.2 1019.3 0.0
26/12:44am 11.8 8.7 11.5 98 0.2 SSW 19 24 10 13 1021.2 1019.3 0.0
26/12:30am 11.9 8.6 11.7 99 0.1 SSW 20 30 11 16 1021.3 1019.4 0.0
26/12:08am 12.3 9.1 12.0 98 0.2 SSW 20 28 11 15 1021.5 1019.7 0.0
26/12:00am 12.3 9.1 11.8 97 0.3 SSW 20 28 11 15 1021.6 1019.8 0.0
 
Date/Time
EDT
Temp
°C
App
Temp
°C
Dew
Point
°C
Rel
Hum
%
Delta-T
°C
Wind Press
QNH
hPa
Press
MSL
hPa
Rain since
9am
mm
Dir  Spd
km/h
Gust
km/h
Spd
kts
Gust
kts
25/11:30pm 12.8 9.8 11.9 94 0.5 SSW 19 26 10 14 1021.7 1019.9 0.0
25/11:00pm 12.5 8.7 11.1 91 0.8 SSW 22 32 12 17 1021.6 1019.8 0.0
25/10:30pm 12.5 8.9 10.6 88 1.0 SSW 20 30 11 16 1022.0 1020.2 0.0
25/10:00pm 12.6 8.2 10.3 86 1.2 SSW 24 35 13 19 1021.9 1020.1 0.0
25/09:30pm 12.4 8.2 9.8 84 1.4 SSW 22 32 12 17 1021.8 1020.0 0.0
25/09:18pm 12.2 8.0 9.8 85 1.3 SSW 22 33 12 18 1021.7 1019.9 0.0
25/09:00pm 11.8 7.5 9.2 84 1.3 SSW 22 30 12 16 1021.5 1019.7 0.0
25/08:30pm 12.1 7.7 8.9 81 1.6 S 22 32 12 17 1021.5 1019.7 0.0
25/08:00pm 12.6 7.4 8.9 78 1.9 S 26 44 14 24 1021.5 1019.7 0.0
25/07:30pm 13.5 8.3 9.0 74 2.3 S 26 39 14 21 1021.5 1019.7 0.0
25/07:00pm 14.4 7.9 8.1 66 3.2 S 32 43 17 23 1021.4 1019.6 0.0
25/06:30pm 15.8 9.7 8.3 61 3.9 S 30 44 16 24 1021.2 1019.3 0.0
25/06:00pm 16.8 11.0 8.0 56 4.6 S 28 43 15 23 1021.2 1019.3 0.0
25/05:30pm 17.3 11.9 7.9 54 4.9 S 26 41 14 22 1021.3 1019.4 0.0
25/05:00pm 17.5 11.6 7.5 52 5.2 S 28 43 15 23 1021.3 1019.4 0.0
25/04:49pm 17.1 11.2 7.5 53 5.0 S 28 48 15 26 1021.2 1019.3 0.0
25/04:30pm 18.2 12.7 7.6 50 5.5 S 26 37 14 20 1021.3 1019.4 0.0
25/04:00pm 17.8 12.4 7.8 52 5.2 S 26 43 14 23 1021.3 1019.4 0.0
25/03:30pm 18.8 13.8 7.9 49 5.7 S 24 44 13 24 1021.4 1019.6 0.0
25/03:00pm 17.3 11.6 6.8 50 5.3 S 26 41 14 22 1021.6 1019.8 0.0
25/02:51pm 17.2 11.2 7.0 51 5.2 S 28 46 15 25 1021.7 1019.9 0.0
25/02:30pm 18.3 12.8 7.7 50 5.5 S 26 44 14 24 1022.1 1020.3 0.0
25/02:00pm 18.0 11.6 7.1 49 5.6 S 30 44 16 24 1022.5 1020.6 0.0
25/01:30pm 17.6 11.3 5.9 46 5.9 SSE 28 44 15 24 1022.5 1020.6 0.0
25/01:18pm 16.8 10.3 4.5 44 6.0 SSE 28 48 15 26 1022.3 1020.5 0.0
25/01:00pm 18.3 12.2 6.5 46 6.0 S 28 41 15 22 1022.7 1020.8 0.0
25/12:43pm 16.4 9.8 6.0 50 5.2 S 30 48 16 26 1022.8 1020.9 0.0
25/12:30pm 16.6 10.1 6.4 51 5.1 S 30 46 16 25 1023.0 1021.1 0.0
25/12:09pm 16.1 9.5 6.0 51 5.0 SSE 30 52 16 28 1023.2 1021.4 0.0
25/12:00pm 16.6 10.4 6.1 50 5.2 SSE 28 43 15 23 1023.4 1021.6 0.0
25/11:30am 15.9 9.7 6.1 52 4.9 S 28 43 15 23 1023.7 1021.9 0.0
25/11:00am 15.5 9.0 6.5 55 4.5 SSE 30 43 16 23 1023.7 1021.9 0.0
25/10:30am 14.5 7.4 6.3 58 4.1 SSE 33 57 18 31 1023.8 1022.0 0.0
25/10:01am 13.0 5.3 5.2 59 3.7 SSE 35 54 19 29 1023.7 1021.9 0.0
25/10:00am 13.2 5.6 5.6 60 3.7 SSE 35 50 19 27 1023.7 1021.9 0.0
25/09:39am 13.1 5.6 6.2 63 3.4 S 35 54 19 29 1023.9 1022.1 0.0
25/09:30am 12.4 4.8 6.0 65 3.1 SSE 35 50 19 27 1023.6 1021.8 0.0
25/09:19am 12.4 5.4 6.0 65 3.1 S 32 50 17 27 1023.7 1021.9 0.0
25/09:00am 11.6 4.7 6.3 70 2.6 SSE 32 48 17 26 1023.6 1021.8 0.2
25/08:57am 11.4 4.8 6.1 70 2.6 SSE 30 48 16 26 1023.6 1021.8 0.2
25/08:30am 10.7 3.7 6.8 77 1.9 SSE 33 44 18 24 1023.5 1021.7 0.2
25/08:00am 9.7 2.6 6.6 81 1.5 S 33 50 18 27 1023.4 1021.6 0.2
25/07:30am 8.9 2.1 6.7 86 1.1 SSE 32 41 17 22 1023.0 1021.1 0.2
25/07:00am 8.6 2.1 6.7 88 0.9 SSE 30 39 16 21 1022.7 1020.8 0.2
25/06:30am 8.8 2.4 7.1 89 0.8 SSE 30 41 16 22 1022.6 1020.7 0.2
25/06:00am 9.1 2.4 7.2 88 0.9 SSE 32 46 17 25 1022.5 1020.6 0.2
25/05:30am 9.3 2.6 7.3 87 1.0 S 32 48 17 26 1022.3 1020.5 0.2
25/05:00am 9.6 2.7 7.2 85 1.2 S 33 48 18 26 1022.5 1020.6 0.2
25/04:56am 9.7 2.8 7.3 85 1.2 S 33 48 18 26 1022.5 1020.6 0.2
25/04:30am 10.3 3.1 7.5 83 1.4 S 35 50 19 27 1022.6 1020.7 0.2
25/04:00am 10.7 4.3 9.3 91 0.7 S 33 46 18 25 1022.7 1020.8 0.2
25/03:30am 10.7 4.8 9.1 90 0.8 S 30 46 16 25 1022.8 1020.9 0.2
25/03:16am 10.5 5.0 9.1 91 0.7 S 28 39 15 21 1023.0 1021.1 0.2
25/03:00am 10.4 4.8 8.8 90 0.8 SSE 28 37 15 20 1023.0 1021.1 0.2
25/02:30am 10.4 4.8 8.8 90 0.8 S 28 41 15 22 1023.4 1021.6 0.2
25/02:00am 10.2 5.4 9.0 92 0.6 SSE 24 37 13 20 1023.5 1021.7 0.2
25/01:30am 10.5 4.6 8.9 90 0.8 S 30 39 16 21 1023.6 1021.8 0.2
25/01:00am 11.2 6.3 8.6 84 1.3 SSE 24 33 13 18 1024.0 1022.2 0.2
25/12:30am 11.8 7.2 8.3 79 1.8 SSE 22 33 12 18 1024.2 1022.4 0.2
25/12:00am 12.1 7.5 8.2 77 2.0 SSE 22 32 12 17 1024.5 1022.6 0.2
 
Date/Time
EDT
Temp
°C
App
Temp
°C
Dew
Point
°C
Rel
Hum
%
Delta-T
°C
Wind Press
QNH
hPa
Press
MSL
hPa
Rain since
9am
mm
Dir  Spd
km/h
Gust
km/h
Spd
kts
Gust
kts
24/11:30pm 12.3 6.4 7.6 73 2.4 S 28 39 15 21 1024.5 1022.6 0.2
24/11:00pm 12.5 7.1 7.8 73 2.4 SSE 26 41 14 22 1024.6 1022.7 0.2
24/10:30pm 12.5 6.9 8.6 77 2.0 SSE 28 39 15 21 1024.7 1022.9 0.2
24/10:00pm 12.6 6.6 8.7 77 2.0 S 30 44 16 24 1024.9 1023.1 0.2
24/09:40pm 12.7 7.0 8.2 74 2.3 S 28 48 15 26 1024.9 1023.1 0.2
24/09:30pm 12.7 6.5 8.0 73 2.4 S 30 37 16 20 1024.9 1023.1 0.2
24/09:00pm 12.7 6.0 8.0 73 2.4 S 33 48 18 26 1024.6 1022.7 0.2
24/08:56pm 12.7 7.0 8.2 74 2.3 S 28 48 15 26 1024.6 1022.7 0.2
24/08:30pm 12.7 6.4 7.6 71 2.6 S 30 41 16 22 1024.6 1022.7 0.2
24/08:00pm 12.8 7.0 7.9 72 2.5 S 28 44 15 24 1024.3 1022.5 0.2
24/07:30pm 13.1 7.3 7.8 70 2.7 S 28 44 15 24 1024.3 1022.5 0.2
24/07:00pm 13.4 6.7 7.4 67 3.0 S 32 44 17 24 1024.0 1022.2 0.2
24/06:30pm 14.7 7.5 7.7 63 3.6 S 35 52 19 28 1023.8 1022.0 0.2
24/06:00pm 14.7 8.1 8.6 67 3.2 S 33 52 18 28 1023.8 1022.0 0.2
24/05:36pm 14.5 7.8 7.5 63 3.6 S 32 50 17 27 1023.8 1022.0 0.2
24/05:30pm 14.5 7.4 8.0 65 3.3 S 35 46 19 25 1023.8 1022.0 0.2
24/05:00pm 14.8 7.7 8.1 64 3.4 S 35 54 19 29 1023.7 1021.9 0.2
24/04:30pm 15.8 8.2 7.6 58 4.2 S 37 56 20 30 1023.6 1021.8 0.2
24/04:00pm 16.5 9.4 8.0 57 4.4 S 35 56 19 30 1023.7 1021.9 0.2
24/03:33pm 17.6 10.8 7.6 52 5.2 S 33 52 18 28 1023.8 1022.0 0.2
24/03:30pm 17.4 10.7 7.5 52 5.1 S 32 46 17 25 1023.8 1022.0 0.2
24/03:13pm 17.2 9.9 7.3 52 5.1 S 35 54 19 29 1023.9 1022.1 0.2
24/03:00pm 16.4 9.6 7.6 56 4.5 S 33 48 18 26 1024.0 1022.2 0.2
24/02:30pm 16.4 9.8 7.9 57 4.4 S 32 50 17 27 1024.2 1022.4 0.2
24/02:00pm 17.3 11.1 7.9 54 4.9 S 30 48 16 26 1024.2 1022.4 0.0
24/01:37pm 16.9 10.2 8.1 56 4.6 S 33 54 18 29 1024.1 1022.3 0.0
24/01:30pm 16.6 10.0 7.8 56 4.6 S 32 44 17 24 1024.1 1022.3 0.0
24/01:13pm 16.2 9.6 7.9 58 4.3 S 32 50 17 27 1024.1 1022.3 0.0
24/01:00pm 16.2 9.9 8.9 62 3.8 S 32 46 17 25 1024.3 1022.5 0.0
24/12:44pm 16.7 11.3 9.4 62 3.9 S 28 46 15 25 1024.3 1022.5 0.0
24/12:30pm 16.4 11.3 9.3 63 3.8 S 26 41 14 22 1024.3 1022.5 0.0
24/12:02pm 15.3 9.8 9.2 67 3.2 S 28 46 15 25 1024.6 1022.7 0.0
24/12:00pm 15.9 10.6 10.0 68 3.2 S 28 43 15 23 1024.7 1022.9 0.0
24/11:42am 15.2 9.9 9.8 70 2.9 S 28 48 15 26 1024.6 1022.7 0.0
24/11:30am 14.5 8.9 10.3 76 2.3 S 30 44 16 24 1024.6 1022.7 0.0
24/11:00am 14.2 9.3 11.2 82 1.6 S 28 43 15 23 1024.6 1022.7 0.0
24/10:48am 13.4 7.7 11.3 87 1.1 S 32 41 17 22 1024.5 1022.6 0.0
24/10:30am 13.0 8.5 11.4 90 0.9 S 26 43 14 23 1024.3 1022.5 0.0
24/10:14am 11.8 7.9 10.7 93 0.6 S 22 35 12 19 1024.5 1022.6 0.0
24/10:02am 11.8 6.9 11.3 97 0.3 S 28 39 15 21 1024.2 1022.4 0.0
24/10:00am 11.8 7.0 11.5 98 0.2 S 28 35 15 19 1024.2 1022.4 0.0
24/09:56am 11.7 6.5 11.5 99 0.1 S 30 39 16 21 1024.2 1022.4 0.0
24/09:30am 12.4 8.1 12.2 99 0.1 S 26 39 14 21 1023.9 1022.1 0.0
24/09:00am 12.0 8.0 11.8 99 0.1 S 24 37 13 20 1023.9 1022.1 1.4
24/08:30am 12.0 7.6 11.8 99 0.1 SSE 26 37 14 20 1023.5 1021.7 1.4
24/08:00am 12.0 8.4 11.8 99 0.1 S 22 32 12 17 1023.3 1021.5 1.2
24/07:30am 11.9 8.3 11.7 99 0.1 S 22 33 12 18 1023.0 1021.1 1.0
24/07:00am 11.9 7.9 11.7 99 0.1 S 24 39 13 21 1022.8 1020.9 0.8
24/06:30am 12.4 8.9 12.2 99 0.1 S 22 35 12 19 1022.6 1020.7 0.8
24/06:00am 12.3 9.2 12.1 99 0.1 S 20 32 11 17 1022.3 1020.5 0.2
24/05:30am 12.5 9.4 12.3 99 0.1 S 20 32 11 17 1022.1 1020.3 0.0
24/05:00am 12.6 9.2 12.4 99 0.1 S 22 33 12 18 1021.8 1020.0 0.0
24/04:30am 12.8 9.8 12.6 99 0.1 S 20 28 11 15 1022.0 1020.2 0.0
24/04:00am 13.1 10.2 12.9 99 0.1 S 20 33 11 18 1022.1 1020.3 0.0
24/03:30am 13.2 10.0 13.0 99 0.1 S 22 32 12 17 1022.2 1020.4 0.0
24/03:00am 13.4 9.8 13.2 99 0.1 S 24 33 13 18 1022.1 1020.3 0.0
24/02:30am 13.4 10.2 13.2 99 0.1 S 22 39 12 21 1022.2 1020.4 0.0
24/02:00am 13.5 10.9 13.3 99 0.1 SSE 19 30 10 16 1022.5 1020.6 0.0
24/01:30am 13.5 10.4 13.3 99 0.1 SSE 22 28 12 15 1022.7 1020.8 0.0
24/01:00am 13.6 10.5 13.3 98 0.2 SSE 22 30 12 16 1022.8 1020.9 0.0
24/12:30am 13.9 10.8 13.4 97 0.3 S 22 32 12 17 1022.8 1020.9 0.0
24/12:18am 14.0 10.5 13.4 96 0.3 S 24 35 13 19 1022.7 1020.8 0.0
24/12:00am 14.1 10.6 13.3 95 0.5 S 24 35 13 19 1022.6 1020.7 0.0
 
Date/Time
EDT
Temp
°C
App
Temp
°C
Dew
Point
°C
Rel
Hum
%
Delta-T
°C
Wind Press
QNH
hPa
Press
MSL
hPa
Rain since
9am
mm
Dir  Spd
km/h
Gust
km/h
Spd
kts
Gust
kts
23/11:30pm 14.2 10.6 13.2 94 0.6 S 24 33 13 18 1022.6 1020.7 0.0
23/11:00pm 14.2 10.0 13.4 95 0.5 S 28 37 15 20 1022.6 1020.7 0.0
23/10:30pm 14.1 10.6 13.5 96 0.3 S 24 35 13 19 1022.6 1020.7 0.0
23/10:00pm 13.9 10.8 13.3 96 0.3 S 22 32 12 17 1022.5 1020.6 0.0
23/09:44pm 14.0 10.8 13.1 94 0.5 S 22 32 12 17 1022.5 1020.6 0.0
23/09:30pm 14.2 10.6 12.9 92 0.7 S 24 33 13 18 1022.3 1020.5 0.0

Other Formats:

Comma delimited format used in spreadsheet applications
http://www.bom.gov.au/fwo/IDV60801/IDV60801.94860.axf

JavaScript Object Notation format (JSON) in row-major order
http://www.bom.gov.au/fwo/IDV60801/IDV60801.94860.json